Time;durP1;ratioP1;P1;durP2;ratioP2;P2;SDS_P1;SDS_P2;PMS_P1;PMS_P2;Temp;Humidity;BMP_temperature;BMP_pressure;BME280_temperature;BME280_humidity;BME280_pressure;Samples;Min_cycle;Max_cycle;Signal;HPM_P1;HPM_P2
2024/04/03 00:02:05;;;;;;;55.80;2.77;;;;;;;;;;5078857;28;20456;-68
2024/04/03 00:04:35;;;;;;;58.00;2.90;;;;;;;;;;5078057;28;20487;-68
2024/04/03 00:07:01;;;;;;;56.27;2.60;;;;;;;;;;5077142;28;20896;-68
2024/04/03 00:09:28;;;;;;;59.47;3.07;;;;;;;;;;5077031;28;20484;-68
2024/04/03 00:11:54;;;;;;;57.77;3.13;;;;;;;;;;5077895;28;20797;-68
2024/04/03 00:14:21;;;;;;;58.00;3.13;;;;;;;;;;5077615;28;20440;-68
2024/04/03 00:16:47;;;;;;;57.83;2.90;;;;;;;;;;5077945;28;20448;-68
2024/04/03 00:19:16;;;;;;;57.70;2.73;;;;;;;;;;5077506;28;20913;-68
2024/04/03 00:21:42;;;;;;;57.70;3.07;;;;;;;;;;5076902;28;20463;-68
2024/04/03 00:24:10;;;;;;;62.43;3.33;;;;;;;;;;5077247;28;20480;-68
2024/04/03 00:26:36;;;;;;;57.43;3.70;;;;;;;;;;5077614;28;20456;-67
2024/04/03 00:29:03;;;;;;;57.30;2.97;;;;;;;;;;5076985;28;20547;-68
2024/04/03 00:31:29;;;;;;;58.30;3.17;;;;;;;;;;5076806;28;20451;-68
2024/04/03 00:33:57;;;;;;;56.90;3.00;;;;;;;;;;5076700;28;20478;-68
2024/04/03 00:36:24;;;;;;;59.57;3.10;;;;;;;;;;5076797;28;20479;-68
2024/04/03 00:38:51;;;;;;;57.97;2.87;;;;;;;;;;5076983;28;20567;-68
2024/04/03 00:41:17;;;;;;;56.20;3.03;;;;;;;;;;5076470;28;20451;-68
2024/04/03 00:43:44;;;;;;;56.70;3.00;;;;;;;;;;5076937;28;20534;-68
2024/04/03 00:46:10;;;;;;;58.47;3.07;;;;;;;;;;5077215;28;20448;-68
2024/04/03 00:48:37;;;;;;;56.83;2.97;;;;;;;;;;5077273;28;20471;-68
2024/04/03 00:51:04;;;;;;;59.67;4.03;;;;;;;;;;5075995;28;20448;-68
2024/04/03 00:53:33;;;;;;;56.80;2.33;;;;;;;;;;5077095;28;20463;-68
2024/04/03 00:55:59;;;;;;;56.63;3.00;;;;;;;;;;5079716;28;20448;-68
2024/04/03 00:58:27;;;;;;;57.57;3.90;;;;;;;;;;5080867;28;20503;-68
2024/04/03 01:00:53;;;;;;;58.27;3.20;;;;;;;;;;5080504;28;20954;-68
2024/04/03 01:03:20;;;;;;;58.47;3.10;;;;;;;;;;5080412;28;20626;-68
2024/04/03 01:05:46;;;;;;;57.70;3.57;;;;;;;;;;5080234;28;20562;-68
2024/04/03 01:08:13;;;;;;;57.80;3.03;;;;;;;;;;5080356;28;20554;-67
2024/04/03 01:10:40;;;;;;;58.50;3.10;;;;;;;;;;5078156;28;20451;-67
2024/04/03 01:13:07;;;;;;;57.00;2.80;;;;;;;;;;5079957;28;20486;-67
2024/04/03 01:15:34;;;;;;;58.27;3.27;;;;;;;;;;5080163;28;20853;-67
2024/04/03 01:18:01;;;;;;;58.20;3.23;;;;;;;;;;5079753;28;20484;-67
2024/04/03 01:20:27;;;;;;;57.20;3.10;;;;;;;;;;5079256;28;20450;-67
2024/04/03 01:22:54;;;;;;;56.90;3.33;;;;;;;;;;5080183;28;20538;-67
2024/04/03 01:25:21;;;;;;;57.17;3.10;;;;;;;;;;5080227;28;20447;-67
2024/04/03 01:27:49;;;;;;;58.77;3.60;;;;;;;;;;5080158;28;20575;-67
2024/04/03 01:30:15;;;;;;;66.23;3.30;;;;;;;;;;5079331;28;20454;-67
2024/04/03 01:32:42;;;;;;;56.27;2.83;;;;;;;;;;5079423;28;20889;-67
2024/04/03 01:35:08;;;;;;;57.07;3.40;;;;;;;;;;5079623;28;20460;-67
2024/04/03 01:37:36;;;;;;;59.00;2.80;;;;;;;;;;5079191;28;20847;-67
2024/04/03 01:40:02;;;;;;;57.53;2.73;;;;;;;;;;5079053;28;20450;-67
2024/04/03 01:42:31;;;;;;;57.40;3.00;;;;;;;;;;5080115;28;20857;-66
2024/04/03 01:44:57;;;;;;;59.80;3.00;;;;;;;;;;5071575;28;20441;-67
2024/04/03 01:47:24;;;;;;;60.07;3.20;;;;;;;;;;5059802;28;20468;-67
2024/04/03 01:49:53;;;;;;;57.07;2.60;;;;;;;;;;5056591;28;20953;-67
2024/04/03 01:52:20;;;;;;;57.37;2.57;;;;;;;;;;5059791;28;20448;-67
2024/04/03 01:54:46;;;;;;;56.47;2.63;;;;;;;;;;5058884;28;20445;-67
2024/04/03 01:57:14;;;;;;;59.50;3.00;;;;;;;;;;5059564;28;20448;-68
2024/04/03 01:59:41;;;;;;;57.60;2.80;;;;;;;;;;5058462;28;20488;-67
2024/04/03 02:02:08;;;;;;;57.00;3.00;;;;;;;;;;5059478;28;20465;-67
2024/04/03 02:04:34;;;;;;;58.40;3.50;;;;;;;;;;5059386;28;20448;-67
2024/04/03 02:07:01;;;;;;;56.67;2.63;;;;;;;;;;5058882;28;20445;-67
2024/04/03 02:09:27;;;;;;;58.13;2.97;;;;;;;;;;5070637;28;20543;-67
2024/04/03 02:11:55;;;;;;;55.87;2.63;;;;;;;;;;5078230;28;20472;-67
2024/04/03 02:14:21;;;;;;;56.87;2.60;;;;;;;;;;5078479;28;20825;-67
2024/04/03 02:16:49;;;;;;;57.67;2.57;;;;;;;;;;5079103;28;20444;-67
2024/04/03 02:19:15;;;;;;;58.40;3.07;;;;;;;;;;5068152;28;20499;-67
2024/04/03 02:21:42;;;;;;;56.10;2.47;;;;;;;;;;5057957;28;20470;-67
2024/04/03 02:24:08;;;;;;;56.37;2.70;;;;;;;;;;5057392;28;20452;-67
2024/04/03 02:26:35;;;;;;;58.57;2.70;;;;;;;;;;5058599;28;20452;-67
2024/04/03 02:29:01;;;;;;;56.00;2.43;;;;;;;;;;5058660;28;20479;-67
2024/04/03 02:31:29;;;;;;;56.73;2.97;;;;;;;;;;5058291;28;20445;-67
2024/04/03 02:33:56;;;;;;;56.50;3.10;;;;;;;;;;5058095;28;20457;-67
2024/04/03 02:36:23;;;;;;;56.47;2.70;;;;;;;;;;5058199;28;20449;-67
2024/04/03 02:38:49;;;;;;;57.40;2.93;;;;;;;;;;5058013;28;20488;-67
2024/04/03 02:41:16;;;;;;;56.97;2.97;;;;;;;;;;5056383;28;20453;-68
2024/04/03 02:43:43;;;;;;;56.57;2.80;;;;;;;;;;5056692;28;20823;-68
2024/04/03 02:46:10;;;;;;;56.97;3.27;;;;;;;;;;5056778;28;20477;-68
2024/04/03 02:48:36;;;;;;;59.80;2.90;;;;;;;;;;5056968;28;20506;-67
2024/04/03 02:51:05;;;;;;;59.60;2.63;;;;;;;;;;5057008;28;21024;-67
2024/04/03 02:53:31;;;;;;;57.70;3.00;;;;;;;;;;5069429;28;20472;-67
2024/04/03 02:56:01;;;;;;;57.13;3.03;;;;;;;;;;5077745;28;20475;-68
2024/04/03 02:58:27;;;;;;;58.20;3.17;;;;;;;;;;5077089;28;20494;-67
2024/04/03 03:01:01;;;;;;;56.77;2.53;;;;;;;;;;5075215;28;20451;-67
2024/04/03 03:03:29;;;;;;;65.30;2.60;;;;;;;;;;5076907;28;20443;-67
2024/04/03 03:05:56;;;;;;;57.93;3.60;;;;;;;;;;5076994;28;20484;-67
2024/04/03 03:08:24;;;;;;;57.70;2.90;;;;;;;;;;5077139;28;20475;-68
2024/04/03 03:10:51;;;;;;;57.17;2.90;;;;;;;;;;5076211;28;20478;-68
2024/04/03 03:13:17;;;;;;;58.03;3.27;;;;;;;;;;5076973;28;20531;-67
2024/04/03 03:15:51;;;;;;;57.60;2.67;;;;;;;;;;5077081;28;20444;-68
2024/04/03 03:18:17;;;;;;;57.90;2.47;;;;;;;;;;5075836;28;21062;-68
2024/04/03 03:20:46;;;;;;;57.07;3.30;;;;;;;;;;5076464;28;20501;-68
2024/04/03 03:23:12;;;;;;;55.97;2.67;;;;;;;;;;5076484;28;20448;-68
2024/04/03 03:25:41;;;;;;;56.10;2.43;;;;;;;;;;5076504;28;20451;-67
2024/04/03 03:28:07;;;;;;;58.27;2.97;;;;;;;;;;5076178;28;20499;-67
2024/04/03 03:30:34;;;;;;;57.27;2.87;;;;;;;;;;5076613;28;20490;-68
2024/04/03 03:33:00;;;;;;;57.27;2.90;;;;;;;;;;5075966;28;21019;-68
2024/04/03 03:35:27;;;;;;;57.50;3.33;;;;;;;;;;5076253;28;20491;-67
2024/04/03 03:37:54;;;;;;;58.90;2.97;;;;;;;;;;5076551;28;20547;-68
2024/04/03 03:40:21;;;;;;;58.13;3.00;;;;;;;;;;5075664;28;21001;-67
2024/04/03 03:42:49;;;;;;;56.57;3.37;;;;;;;;;;5062582;28;20840;-68
2024/04/03 03:45:19;;;;;;;57.17;3.10;;;;;;;;;;5056652;28;20459;-67
2024/04/03 03:47:45;;;;;;;57.47;2.90;;;;;;;;;;5056189;28;20635;-67
2024/04/03 03:52:57;;;;;;;56.47;3.17;;;;;;;;;;5055977;28;20431;-67
2024/04/03 03:55:28;;;;;;;57.20;3.53;;;;;;;;;;5055616;28;20537;-68
2024/04/03 03:57:57;;;;;;;57.87;3.20;;;;;;;;;;5055940;28;20473;-68
2024/04/03 04:00:24;;;;;;;58.83;2.97;;;;;;;;;;5055416;28;20579;-67
2024/04/03 04:02:50;;;;;;;58.63;4.67;;;;;;;;;;5055830;28;20516;-67
2024/04/03 04:05:17;;;;;;;59.90;3.10;;;;;;;;;;5056064;28;20476;-68
2024/04/03 04:07:44;;;;;;;56.83;2.63;;;;;;;;;;5055569;28;20526;-67
2024/04/03 04:10:11;;;;;;;59.33;2.90;;;;;;;;;;5054998;28;20518;-68
2024/04/03 04:12:37;;;;;;;58.03;2.80;;;;;;;;;;5055558;28;20459;-68
2024/04/03 04:15:07;;;;;;;60.80;3.77;;;;;;;;;;5055667;28;20844;-68
2024/04/03 04:17:33;;;;;;;57.90;2.90;;;;;;;;;;5055478;28;20514;-67
2024/04/03 04:20:00;;;;;;;56.37;3.10;;;;;;;;;;5054899;28;20481;-68
2024/04/03 04:22:26;;;;;;;56.07;2.90;;;;;;;;;;5055058;28;20449;-67
2024/04/03 04:24:54;;;;;;;56.20;2.90;;;;;;;;;;5055081;28;20449;-68
2024/04/03 04:27:21;;;;;;;56.60;2.77;;;;;;;;;;5055826;28;20495;-68
2024/04/03 04:29:48;;;;;;;56.87;3.00;;;;;;;;;;5055771;28;20440;-67
2024/04/03 04:32:17;;;;;;;55.97;2.80;;;;;;;;;;5059446;28;20456;-68
2024/04/03 04:34:44;;;;;;;57.33;2.70;;;;;;;;;;5058438;28;20963;-67
2024/04/03 04:37:10;;;;;;;60.90;2.80;;;;;;;;;;5059546;28;20444;-68
2024/04/03 04:39:37;;;;;;;56.20;2.73;;;;;;;;;;5058839;28;20636;-67
2024/04/03 04:42:03;;;;;;;57.30;2.93;;;;;;;;;;5058975;28;20449;-68
2024/04/03 04:44:31;;;;;;;56.47;3.03;;;;;;;;;;5059222;28;20452;-68
2024/04/03 04:46:57;;;;;;;56.00;2.80;;;;;;;;;;5059300;28;20488;-67
2024/04/03 04:49:26;;;;;;;57.60;3.00;;;;;;;;;;5059008;28;20883;-67
2024/04/03 04:51:52;;;;;;;58.53;2.97;;;;;;;;;;5064517;28;20812;-67
2024/04/03 04:54:19;;;;;;;57.07;3.07;;;;;;;;;;5079202;28;20527;-67
2024/04/03 04:56:45;;;;;;;56.70;3.20;;;;;;;;;;5078694;28;20932;-68
2024/04/03 04:59:13;;;;;;;57.00;3.13;;;;;;;;;;5080204;28;20479;-68
2024/04/03 05:01:39;;;;;;;56.30;2.97;;;;;;;;;;5079449;28;20502;-68
2024/04/03 05:04:07;;;;;;;56.53;2.87;;;;;;;;;;5078736;28;20473;-68
2024/04/03 05:06:34;;;;;;;57.97;3.20;;;;;;;;;;5078779;28;20820;-68
2024/04/03 05:09:03;;;;;;;61.37;3.10;;;;;;;;;;5079648;28;20493;-68
2024/04/03 05:11:29;;;;;;;57.23;3.00;;;;;;;;;;5078871;28;20515;-67
2024/04/03 05:13:56;;;;;;;56.40;2.57;;;;;;;;;;5079255;28;20452;-68
2024/04/03 05:16:22;;;;;;;57.33;2.83;;;;;;;;;;5079076;28;20451;-68
2024/04/03 05:18:50;;;;;;;56.90;2.73;;;;;;;;;;5074363;28;20485;-68
2024/04/03 05:21:17;;;;;;;56.77;2.97;;;;;;;;;;5059108;28;20535;-68
2024/04/03 05:23:45;;;;;;;61.70;3.20;;;;;;;;;;5058947;28;20828;-68
2024/04/03 05:26:13;;;;;;;58.77;3.77;;;;;;;;;;5058857;28;20495;-67
2024/04/03 05:28:40;;;;;;;57.47;2.83;;;;;;;;;;5070225;28;20459;-67
2024/04/03 05:31:08;;;;;;;59.33;3.83;;;;;;;;;;5077949;28;20439;-68
2024/04/03 05:33:35;;;;;;;57.47;3.30;;;;;;;;;;5078467;28;20456;-67
2024/04/03 05:36:02;;;;;;;64.27;6.40;;;;;;;;;;5079087;28;20439;-68
2024/04/03 05:38:29;;;;;;;61.03;6.77;;;;;;;;;;5078091;28;20542;-67
2024/04/03 05:40:57;;;;;;;59.27;3.70;;;;;;;;;;5078226;28;20455;-68
2024/04/03 05:43:24;;;;;;;57.17;2.90;;;;;;;;;;5078677;28;20444;-67
2024/04/03 05:45:53;;;;;;;61.73;3.43;;;;;;;;;;5077955;28;20447;-68
2024/04/03 05:48:20;;;;;;;56.80;3.00;;;;;;;;;;5078259;28;20463;-67
2024/04/03 05:50:47;;;;;;;59.17;3.03;;;;;;;;;;5078277;28;20531;-67
2024/04/03 05:53:14;;;;;;;57.93;3.83;;;;;;;;;;5078341;28;20507;-67
2024/04/03 05:55:41;;;;;;;57.40;3.37;;;;;;;;;;5078074;28;20448;-67
2024/04/03 05:58:08;;;;;;;58.07;3.50;;;;;;;;;;5078139;28;20478;-67
2024/04/03 06:00:35;;;;;;;57.70;2.97;;;;;;;;;;5077825;28;20515;-67
2024/04/03 06:03:01;;;;;;;57.57;3.00;;;;;;;;;;5078161;28;20499;-67
2024/04/03 06:05:28;;;;;;;60.93;3.50;;;;;;;;;;5078684;28;20444;-67
2024/04/03 06:07:59;;;;;;;59.20;3.37;;;;;;;;;;5078462;28;20554;-68
2024/04/03 06:10:26;;;;;;;56.00;3.30;;;;;;;;;;5078100;28;20466;-67
2024/04/03 06:12:52;;;;;;;58.90;3.67;;;;;;;;;;5064688;28;20488;-68
2024/04/03 06:15:21;;;;;;;58.30;3.13;;;;;;;;;;5057987;28;20441;-67
2024/04/03 06:17:47;;;;;;;57.17;3.27;;;;;;;;;;5058446;28;20472;-67
2024/04/03 06:20:14;;;;;;;57.67;3.30;;;;;;;;;;5058566;28;20496;-68
2024/04/03 06:22:40;;;;;;;58.77;3.30;;;;;;;;;;5070560;28;20538;-68
2024/04/03 06:25:07;;;;;;;56.33;3.23;;;;;;;;;;5078201;28;20839;-67
2024/04/03 06:27:34;;;;;;;57.17;2.60;;;;;;;;;;5059379;28;20451;-67
2024/04/03 06:30:01;;;;;;;59.00;2.70;;;;;;;;;;5058532;28;20472;-67
2024/04/03 06:32:28;;;;;;;56.10;2.60;;;;;;;;;;5057603;28;20456;-67
2024/04/03 06:34:55;;;;;;;56.67;2.73;;;;;;;;;;5057330;28;20492;-67
2024/04/03 06:37:21;;;;;;;58.03;2.87;;;;;;;;;;5057163;28;20451;-67
2024/04/03 06:39:48;;;;;;;56.87;2.63;;;;;;;;;;5056638;28;20479;-67
2024/04/03 06:42:15;;;;;;;57.60;2.97;;;;;;;;;;5056690;28;20453;-67
2024/04/03 06:44:43;;;;;;;56.63;2.60;;;;;;;;;;5057441;28;20476;-67
2024/04/03 06:47:09;;;;;;;57.37;2.57;;;;;;;;;;5057759;28;20444;-67
2024/04/03 06:49:37;;;;;;;57.17;2.73;;;;;;;;;;5056721;28;20473;-67
2024/04/03 06:52:04;;;;;;;57.40;2.70;;;;;;;;;;5056174;28;20551;-67
2024/04/03 06:54:31;;;;;;;55.97;2.70;;;;;;;;;;5057209;28;20476;-67
2024/04/03 06:56:57;;;;;;;58.10;2.73;;;;;;;;;;5057071;28;20448;-67
2024/04/03 06:59:24;;;;;;;56.30;2.60;;;;;;;;;;5056207;28;20542;-68
2024/04/03 07:01:50;;;;;;;56.57;3.00;;;;;;;;;;5061380;28;20452;-67
2024/04/03 07:04:18;;;;;;;56.50;3.33;;;;;;;;;;5076651;28;20642;-67
2024/04/03 07:06:45;;;;;;;57.10;2.60;;;;;;;;;;5076983;28;20542;-67
2024/04/03 07:09:12;;;;;;;58.50;3.70;;;;;;;;;;5076624;28;20460;-67
2024/04/03 07:11:39;;;;;;;57.90;3.10;;;;;;;;;;5076864;28;20817;-67
2024/04/03 07:14:06;;;;;;;56.60;2.83;;;;;;;;;;5076878;28;20455;-67
2024/04/03 07:16:32;;;;;;;59.07;3.00;;;;;;;;;;5077293;28;20539;-67
2024/04/03 07:18:59;;;;;;;55.83;2.53;;;;;;;;;;5076909;28;20490;-67
2024/04/03 07:21:25;;;;;;;57.90;2.93;;;;;;;;;;5077434;28;20455;-67
2024/04/03 07:23:54;;;;;;;56.70;2.50;;;;;;;;;;5077081;28;20894;-67
2024/04/03 07:26:21;;;;;;;56.37;2.73;;;;;;;;;;5077325;28;20507;-67
2024/04/03 07:28:49;;;;;;;56.07;2.57;;;;;;;;;;5077456;28;20475;-67
2024/04/03 07:31:15;;;;;;;61.03;2.80;;;;;;;;;;5077019;28;20444;-67
2024/04/03 07:33:42;;;;;;;56.97;2.60;;;;;;;;;;5077452;28;20531;-68
2024/04/03 07:36:08;;;;;;;59.33;2.73;;;;;;;;;;5078372;28;20523;-67
2024/04/03 07:38:36;;;;;;;58.17;2.67;;;;;;;;;;5077575;28;20472;-67
2024/04/03 07:41:03;;;;;;;57.50;2.77;;;;;;;;;;5076986;28;20490;-67
2024/04/03 07:43:31;;;;;;;57.13;2.80;;;;;;;;;;5076931;28;20448;-67
2024/04/03 07:45:58;;;;;;;55.80;2.27;;;;;;;;;;5077499;28;20454;-67
2024/04/03 07:48:25;;;;;;;60.00;2.77;;;;;;;;;;5077495;28;20474;-66
2024/04/03 07:50:59;;;;;;;57.43;2.53;;;;;;;;;;5077418;28;20479;-66
2024/04/03 07:53:26;;;;;;;56.87;3.00;;;;;;;;;;5077412;28;20486;-67
2024/04/03 07:55:52;;;;;;;56.53;2.70;;;;;;;;;;5077520;28;20587;-67
2024/04/03 07:58:21;;;;;;;56.33;2.60;;;;;;;;;;5077736;28;20471;-68
2024/04/03 08:00:47;;;;;;;56.80;2.90;;;;;;;;;;5069050;28;20483;-68
2024/04/03 08:03:14;;;;;;;56.30;2.70;;;;;;;;;;5077838;28;20451;-68
2024/04/03 08:05:40;;;;;;;56.77;3.00;;;;;;;;;;5077194;28;20839;-68
2024/04/03 08:08:07;;;;;;;57.50;2.90;;;;;;;;;;5077361;28;20468;-67
2024/04/03 08:10:34;;;;;;;55.87;2.53;;;;;;;;;;5076821;28;20523;-68
2024/04/03 08:13:01;;;;;;;56.10;2.50;;;;;;;;;;5076871;28;20440;-68
2024/04/03 08:15:28;;;;;;;57.40;3.33;;;;;;;;;;5077258;28;20507;-68
2024/04/03 08:17:56;;;;;;;57.10;2.87;;;;;;;;;;5077814;28;20472;-68
2024/04/03 08:20:22;;;;;;;62.30;2.80;;;;;;;;;;5073921;28;20521;-68
2024/04/03 08:22:49;;;;;;;56.57;2.60;;;;;;;;;;5078027;28;20444;-68
2024/04/03 08:25:16;;;;;;;57.23;2.90;;;;;;;;;;5077167;28;20449;-68
2024/04/03 08:27:43;;;;;;;61.37;2.80;;;;;;;;;;5076820;28;20489;-68
2024/04/03 08:30:09;;;;;;;56.17;2.77;;;;;;;;;;5076778;28;20801;-68
2024/04/03 08:32:39;;;;;;;58.50;2.80;;;;;;;;;;5076957;28;20444;-68
2024/04/03 08:35:06;;;;;;;56.17;2.57;;;;;;;;;;5076381;28;20463;-68
2024/04/03 08:37:33;;;;;;;57.07;2.50;;;;;;;;;;5076338;28;20509;-69
2024/04/03 08:40:00;;;;;;;56.27;2.30;;;;;;;;;;5075675;28;21080;-68
2024/04/03 08:42:27;;;;;;;57.20;2.73;;;;;;;;;;5058984;28;20448;-68
2024/04/03 08:44:53;;;;;;;56.00;2.50;;;;;;;;;;5055951;28;20941;-68
2024/04/03 08:47:22;;;;;;;56.17;2.33;;;;;;;;;;5055957;28;20445;-68
2024/04/03 08:49:50;;;;;;;55.77;2.10;;;;;;;;;;5067597;28;20447;-68
2024/04/03 08:52:18;;;;;;;56.00;2.40;;;;;;;;;;5075075;28;20444;-68
2024/04/03 08:54:45;;;;;;;56.77;2.37;;;;;;;;;;5075642;28;20444;-68
2024/04/03 08:57:12;;;;;;;56.27;2.77;;;;;;;;;;5075209;28;20971;-68
2024/04/03 08:59:38;;;;;;;56.67;2.57;;;;;;;;;;5074469;28;20487;-68
2024/04/03 09:02:06;;;;;;;56.17;2.47;;;;;;;;;;5074605;28;20505;-68
2024/04/03 09:04:32;;;;;;;57.07;2.80;;;;;;;;;;5075378;28;20534;-68
2024/04/03 09:07:01;;;;;;;56.77;2.87;;;;;;;;;;5075274;28;20536;-68
2024/04/03 09:09:27;;;;;;;59.37;2.77;;;;;;;;;;5075011;28;20496;-69
2024/04/03 09:12:01;;;;;;;57.50;2.53;;;;;;;;;;5074777;28;20543;-69
2024/04/03 09:14:28;;;;;;;55.90;2.13;;;;;;;;;;5075074;28;20857;-68
2024/04/03 09:16:59;;;;;;;57.00;2.70;;;;;;;;;;5078162;28;20448;-68
2024/04/03 09:19:26;;;;;;;56.50;2.30;;;;;;;;;;5078643;28;20470;-68
2024/04/03 09:21:53;;;;;;;56.40;2.30;;;;;;;;;;5078085;28;20483;-68
2024/04/03 09:24:20;;;;;;;56.07;2.30;;;;;;;;;;5078307;28;20531;-69
2024/04/03 09:26:48;;;;;;;56.10;2.20;;;;;;;;;;5078241;28;20474;-69
2024/04/03 09:29:17;;;;;;;56.17;2.27;;;;;;;;;;5078239;28;20931;-68
2024/04/03 09:31:44;;;;;;;56.20;2.50;;;;;;;;;;5078181;28;20490;-68
2024/04/03 09:34:11;;;;;;;56.10;2.30;;;;;;;;;;5078447;28;20538;-68
2024/04/03 09:36:38;;;;;;;56.67;2.50;;;;;;;;;;5078534;28;20469;-69
2024/04/03 09:39:04;;;;;;;57.27;2.10;;;;;;;;;;5078613;28;20815;-68
2024/04/03 09:41:33;;;;;;;56.47;2.57;;;;;;;;;;5078147;28;20490;-65
2024/04/03 09:44:00;;;;;;;55.93;2.20;;;;;;;;;;5078355;28;20527;-66
2024/04/03 09:46:31;;;;;;;55.90;2.27;;;;;;;;;;5078360;28;20862;-68
2024/04/03 09:48:58;;;;;;;56.40;2.60;;;;;;;;;;5077689;28;20468;-68
2024/04/03 09:51:25;;;;;;;55.60;2.20;;;;;;;;;;5077183;28;20889;-67
2024/04/03 09:53:51;;;;;;;56.23;2.70;;;;;;;;;;5077422;28;20542;-68
2024/04/03 09:56:19;;;;;;;57.50;2.53;;;;;;;;;;5079680;28;20444;-67
2024/04/03 09:58:46;;;;;;;55.70;2.00;;;;;;;;;;5078758;28;20558;-68
2024/04/03 10:01:13;;;;;;;57.27;2.50;;;;;;;;;;5077226;28;20480;-67
2024/04/03 10:03:40;;;;;;;55.47;2.23;;;;;;;;;;5077980;28;20819;-67
2024/04/03 10:06:11;;;;;;;55.87;2.20;;;;;;;;;;5078137;28;20824;-67
2024/04/03 10:08:39;;;;;;;56.13;2.20;;;;;;;;;;5077781;28;20468;-69
2024/04/03 10:11:07;;;;;;;57.40;2.60;;;;;;;;;;5077321;28;20452;-68
2024/04/03 10:13:33;;;;;;;56.00;2.30;;;;;;;;;;5077400;28;20454;-68
2024/04/03 10:16:02;;;;;;;56.27;2.30;;;;;;;;;;5077222;28;20447;-68
2024/04/03 10:18:28;;;;;;;56.00;2.23;;;;;;;;;;5077261;28;20555;-68
2024/04/03 10:20:57;;;;;;;58.80;2.40;;;;;;;;;;5076389;28;20472;-68
2024/04/03 10:23:24;;;;;;;55.80;2.17;;;;;;;;;;5076106;28;20461;-68
2024/04/03 10:25:52;;;;;;;56.10;2.10;;;;;;;;;;5076957;28;20593;-68
2024/04/03 10:28:18;;;;;;;58.70;2.43;;;;;;;;;;5075655;28;20836;-68
2024/04/03 10:30:46;;;;;;;56.27;2.30;;;;;;;;;;5076974;28;20489;-67
2024/04/03 10:33:14;;;;;;;56.07;2.57;;;;;;;;;;5077189;28;20816;-68
2024/04/03 10:35:41;;;;;;;56.07;2.57;;;;;;;;;;5077021;28;20567;-68
2024/04/03 10:38:08;;;;;;;58.97;2.33;;;;;;;;;;5077552;28;20550;-68
2024/04/03 10:40:35;;;;;;;55.87;2.30;;;;;;;;;;5076836;28;20904;-68
2024/04/03 10:43:01;;;;;;;56.20;2.67;;;;;;;;;;5076764;28;20447;-67
2024/04/03 10:45:28;;;;;;;56.97;2.23;;;;;;;;;;5076695;28;20799;-68
2024/04/03 10:47:55;;;;;;;56.90;2.40;;;;;;;;;;5077159;28;20543;-68
2024/04/03 10:50:23;;;;;;;56.57;2.33;;;;;;;;;;5076402;28;20451;-68
2024/04/03 10:52:50;;;;;;;59.57;2.07;;;;;;;;;;5077204;28;20444;-68
2024/04/03 10:55:19;;;;;;;56.07;1.97;;;;;;;;;;5076891;28;20959;-68
2024/04/03 10:57:47;;;;;;;59.10;2.00;;;;;;;;;;5076331;28;20829;-68
2024/04/03 11:00:15;;;;;;;55.67;1.90;;;;;;;;;;5075388;28;20479;-68
2024/04/03 11:02:45;;;;;;;56.00;1.90;;;;;;;;;;5075560;28;20889;-68
2024/04/03 11:05:13;;;;;;;55.83;2.10;;;;;;;;;;5076218;28;20521;-68
2024/04/03 11:07:42;;;;;;;55.90;1.90;;;;;;;;;;5075503;28;20444;-67
2024/04/03 11:10:13;;;;;;;56.50;2.10;;;;;;;;;;5075310;28;20539;-67
2024/04/03 11:12:39;;;;;;;56.20;2.00;;;;;;;;;;5075648;28;20448;-68
2024/04/03 11:15:09;;;;;;;57.70;2.10;;;;;;;;;;5076297;28;20531;-68
2024/04/03 11:17:35;;;;;;;56.20;1.80;;;;;;;;;;5076392;28;20466;-68
2024/04/03 11:20:03;;;;;;;55.53;1.80;;;;;;;;;;5076156;28;20478;-67
2024/04/03 11:22:29;;;;;;;55.47;2.10;;;;;;;;;;5076220;28;21012;-68
2024/04/03 11:24:58;;;;;;;55.70;2.00;;;;;;;;;;5067981;28;20509;-67
2024/04/03 11:27:24;;;;;;;56.97;2.07;;;;;;;;;;5075328;28;20475;-68
2024/04/03 11:29:51;;;;;;;55.80;2.13;;;;;;;;;;5078270;28;20455;-67
2024/04/03 11:32:17;;;;;;;56.70;2.07;;;;;;;;;;5077483;28;20448;-67
2024/04/03 11:34:45;;;;;;;55.47;2.03;;;;;;;;;;5076931;28;20468;-66
2024/04/03 11:37:11;;;;;;;55.77;1.93;;;;;;;;;;5075989;28;20448;-67
2024/04/03 11:39:38;;;;;;;55.37;2.10;;;;;;;;;;5075178;28;20499;-67
2024/04/03 11:42:07;;;;;;;56.00;2.10;;;;;;;;;;5076117;28;20539;-67
2024/04/03 11:44:34;;;;;;;55.50;1.80;;;;;;;;;;5077054;28;20456;-66
2024/04/03 11:47:00;;;;;;;55.57;1.70;;;;;;;;;;5075520;28;20444;-67
2024/04/03 11:49:28;;;;;;;55.40;1.90;;;;;;;;;;5075670;28;20468;-67
2024/04/03 11:51:54;;;;;;;55.73;2.10;;;;;;;;;;5075651;28;20448;-67
2024/04/03 11:54:21;;;;;;;55.47;1.83;;;;;;;;;;5060999;28;20468;-67
2024/04/03 11:56:47;;;;;;;56.10;2.03;;;;;;;;;;5055546;28;20449;-67
2024/04/03 11:59:15;;;;;;;56.77;1.90;;;;;;;;;;5054477;28;20526;-68
2024/04/03 12:01:41;;;;;;;57.60;2.00;;;;;;;;;;5057906;28;20580;-68
2024/04/03 12:04:09;;;;;;;55.60;1.80;;;;;;;;;;5076646;28;20443;-67
2024/04/03 12:06:35;;;;;;;56.70;1.97;;;;;;;;;;5075535;28;20523;-68
2024/04/03 12:09:02;;;;;;;55.77;2.30;;;;;;;;;;5076076;28;20990;-67
2024/04/03 12:11:29;;;;;;;55.60;2.00;;;;;;;;;;5075511;28;20507;-68
2024/04/03 12:13:56;;;;;;;57.93;1.90;;;;;;;;;;5077335;28;20448;-67
2024/04/03 12:16:27;;;;;;;55.17;1.90;;;;;;;;;;5076088;28;20453;-68
2024/04/03 12:19:12;;;;;;;55.60;2.03;;;;;;;;;;5071219;28;20472;-68
2024/04/03 12:21:39;;;;;;;55.60;1.83;;;;;;;;;;5053026;28;20528;-68
2024/04/03 12:24:06;;;;;;;55.80;2.20;;;;;;;;;;5053106;28;20456;-67
2024/04/03 12:26:32;;;;;;;56.03;2.17;;;;;;;;;;5053080;28;20445;-68
2024/04/03 12:29:00;;;;;;;55.43;2.00;;;;;;;;;;5065431;28;20464;-68
2024/04/03 12:31:27;;;;;;;55.57;2.00;;;;;;;;;;5073020;28;20928;-67
2024/04/03 12:33:54;;;;;;;56.47;2.07;;;;;;;;;;5073568;28;20451;-67
2024/04/03 12:36:21;;;;;;;57.37;2.30;;;;;;;;;;5073913;28;20443;-72
2024/04/03 12:38:48;;;;;;;55.57;2.10;;;;;;;;;;5073982;28;21073;-68
2024/04/03 12:41:14;;;;;;;55.50;2.00;;;;;;;;;;5073658;28;20479;-67
2024/04/03 12:43:41;;;;;;;61.40;3.30;;;;;;;;;;5073801;28;20448;-68
2024/04/03 12:46:10;;;;;;;56.40;2.30;;;;;;;;;;5074127;28;20450;-67
2024/04/03 12:48:38;;;;;;;56.20;2.10;;;;;;;;;;5074984;28;20472;-67
2024/04/03 12:51:05;;;;;;;57.60;2.33;;;;;;;;;;5056041;28;20459;-68
2024/04/03 12:53:32;;;;;;;55.67;1.83;;;;;;;;;;5058421;28;20468;-67
2024/04/03 12:55:58;;;;;;;55.80;2.20;;;;;;;;;;5059585;28;20448;-69
2024/04/03 12:58:25;;;;;;;55.67;2.10;;;;;;;;;;5065994;28;20517;-68
2024/04/03 13:00:51;;;;;;;56.03;2.03;;;;;;;;;;5078487;28;20537;-68
2024/04/03 13:03:19;;;;;;;55.67;2.10;;;;;;;;;;5078435;28;20539;-65
2024/04/03 13:05:49;;;;;;;54.50;1.90;;;;;;;;;;5078706;28;20450;-65
2024/04/03 13:08:16;;;;;;;56.00;2.00;;;;;;;;;;5079188;28;20563;-66
2024/04/03 13:10:42;;;;;;;56.30;2.20;;;;;;;;;;5078364;28;20444;-66
2024/04/03 13:13:09;;;;;;;55.50;2.20;;;;;;;;;;5078787;28;20459;-66
2024/04/03 13:15:36;;;;;;;55.80;2.20;;;;;;;;;;5077611;28;20546;-66
2024/04/03 13:18:03;;;;;;;55.80;2.20;;;;;;;;;;5070261;28;20470;-66
2024/04/03 13:20:30;;;;;;;54.87;1.60;;;;;;;;;;5076830;28;20491;-66
2024/04/03 13:22:58;;;;;;;55.37;2.10;;;;;;;;;;5077479;28;20924;-66
2024/04/03 13:25:24;;;;;;;55.50;1.93;;;;;;;;;;5077644;28;20530;-67
2024/04/03 13:27:51;;;;;;;55.67;1.90;;;;;;;;;;5076827;28;20468;-66
2024/04/03 13:30:18;;;;;;;55.10;1.90;;;;;;;;;;5077072;28;20450;-67
2024/04/03 13:32:45;;;;;;;55.50;1.77;;;;;;;;;;5076709;28;20479;-67
2024/04/03 13:35:11;;;;;;;55.90;2.00;;;;;;;;;;5077686;28;20943;-67
2024/04/03 13:37:38;;;;;;;56.50;1.90;;;;;;;;;;5077748;28;20459;-66
2024/04/03 13:40:08;;;;;;;55.80;1.90;;;;;;;;;;5077412;28;20447;-67
2024/04/03 13:42:35;;;;;;;55.20;1.87;;;;;;;;;;5077324;28;20458;-66
2024/04/03 13:45:03;;;;;;;55.50;1.60;;;;;;;;;;5074937;28;20454;-67
2024/04/03 13:47:30;;;;;;;56.10;2.30;;;;;;;;;;5076184;28;20460;-66
2024/04/03 13:49:56;;;;;;;55.20;1.90;;;;;;;;;;5073659;28;20522;-66
2024/04/03 13:52:23;;;;;;;55.50;1.90;;;;;;;;;;5074973;28;20539;-67
2024/04/03 13:54:50;;;;;;;55.40;1.90;;;;;;;;;;5055323;28;20453;-66
2024/04/03 13:57:20;;;;;;;55.60;2.00;;;;;;;;;;5053178;28;20449;-66
2024/04/03 13:59:48;;;;;;;55.47;2.10;;;;;;;;;;5052175;28;20496;-66
2024/04/03 14:02:15;;;;;;;55.70;2.00;;;;;;;;;;5053376;28;20488;-66
2024/04/03 14:04:42;;;;;;;56.33;2.33;;;;;;;;;;5053208;28;20453;-66
2024/04/03 14:07:08;;;;;;;55.90;2.20;;;;;;;;;;5053972;28;20480;-66
2024/04/03 14:09:35;;;;;;;55.90;2.17;;;;;;;;;;5069561;28;20476;-67
2024/04/03 14:12:01;;;;;;;55.40;2.13;;;;;;;;;;5073668;28;20443;-66
2024/04/03 14:14:30;;;;;;;57.00;2.20;;;;;;;;;;5073717;28;20460;-67
2024/04/03 14:16:56;;;;;;;55.47;2.13;;;;;;;;;;5074597;28;20451;-67
2024/04/03 14:19:22;;;;;;;55.90;2.10;;;;;;;;;;5074157;28;20464;-66
2024/04/03 14:21:49;;;;;;;56.00;2.50;;;;;;;;;;5074353;28;20534;-66
2024/04/03 14:24:16;;;;;;;56.13;2.30;;;;;;;;;;5074833;28;20550;-66
2024/04/03 14:26:43;;;;;;;55.90;2.10;;;;;;;;;;5073842;28;20452;-66
2024/04/03 14:29:09;;;;;;;55.77;2.07;;;;;;;;;;5075065;28;20486;-66
2024/04/03 14:31:38;;;;;;;56.00;2.53;;;;;;;;;;5075036;28;20534;-66
2024/04/03 14:34:04;;;;;;;56.47;2.17;;;;;;;;;;5074677;28;20464;-66